sensor_id;sensor_type;location;lat;lon;timestamp;P1;durP1;ratioP1;P2;durP2;ratioP2
76439;SDS011;65274;44.982;20.060;2023-12-20T05:24:59;246.15;;;116.65;;
76439;SDS011;65274;44.982;20.060;2023-12-20T08:50:38;197.65;;;90.80;;
76439;SDS011;65274;44.982;20.060;2023-12-20T08:59:01;182.60;;;89.55;;
76439;SDS011;65274;44.982;20.060;2023-12-20T09:06:52;158.65;;;81.38;;
76439;SDS011;65274;44.982;20.060;2023-12-20T09:12:59;144.73;;;76.30;;
76439;SDS011;65274;44.982;20.060;2023-12-20T09:15:27;163.38;;;81.00;;
76439;SDS011;65274;44.982;20.060;2023-12-20T09:17:55;152.18;;;78.65;;
76439;SDS011;65274;44.982;20.060;2023-12-20T09:20:21;149.85;;;79.97;;
76439;SDS011;65274;44.982;20.060;2023-12-20T09:22:48;140.35;;;75.15;;
76439;SDS011;65274;44.982;20.060;2023-12-20T09:25:15;167.75;;;84.75;;
76439;SDS011;65274;44.982;20.060;2023-12-20T09:27:42;147.68;;;78.82;;
76439;SDS011;65274;44.982;20.060;2023-12-20T09:30:09;151.88;;;82.88;;
76439;SDS011;65274;44.982;20.060;2023-12-20T09:32:35;146.52;;;83.13;;
76439;SDS011;65274;44.982;20.060;2023-12-20T09:35:02;128.77;;;71.55;;
76439;SDS011;65274;44.982;20.060;2023-12-20T09:37:30;145.68;;;74.75;;
76439;SDS011;65274;44.982;20.060;2023-12-20T09:39:56;143.00;;;77.18;;
76439;SDS011;65274;44.982;20.060;2023-12-20T09:42:37;132.73;;;75.37;;
76439;SDS011;65274;44.982;20.060;2023-12-20T09:45:04;124.05;;;69.72;;
76439;SDS011;65274;44.982;20.060;2023-12-20T09:47:34;122.30;;;67.72;;
76439;SDS011;65274;44.982;20.060;2023-12-20T09:50:01;120.28;;;67.45;;
76439;SDS011;65274;44.982;20.060;2023-12-20T09:52:27;122.85;;;65.03;;
76439;SDS011;65274;44.982;20.060;2023-12-20T09:54:54;115.20;;;63.55;;
76439;SDS011;65274;44.982;20.060;2023-12-20T09:57:21;113.00;;;62.08;;
76439;SDS011;65274;44.982;20.060;2023-12-20T09:59:47;107.15;;;60.30;;
76439;SDS011;65274;44.982;20.060;2023-12-20T10:02:13;107.05;;;60.67;;
76439;SDS011;65274;44.982;20.060;2023-12-20T10:04:42;110.22;;;63.42;;
76439;SDS011;65274;44.982;20.060;2023-12-20T10:07:11;107.38;;;60.25;;
76439;SDS011;65274;44.982;20.060;2023-12-20T10:09:37;103.60;;;60.40;;
76439;SDS011;65274;44.982;20.060;2023-12-20T10:12:04;103.43;;;60.92;;
76439;SDS011;65274;44.982;20.060;2023-12-20T10:14:31;111.55;;;62.97;;
76439;SDS011;65274;44.982;20.060;2023-12-20T10:17:04;112.65;;;64.82;;
76439;SDS011;65274;44.982;20.060;2023-12-20T10:19:31;118.18;;;68.10;;
76439;SDS011;65274;44.982;20.060;2023-12-20T10:22:00;112.95;;;65.60;;
76439;SDS011;65274;44.982;20.060;2023-12-20T10:24:30;112.50;;;64.13;;
76439;SDS011;65274;44.982;20.060;2023-12-20T10:27:03;127.60;;;73.20;;
76439;SDS011;65274;44.982;20.060;2023-12-20T10:29:35;146.75;;;89.05;;
76439;SDS011;65274;44.982;20.060;2023-12-20T10:32:21;106.78;;;63.38;;
76439;SDS011;65274;44.982;20.060;2023-12-20T10:34:47;100.45;;;59.88;;
76439;SDS011;65274;44.982;20.060;2023-12-20T10:37:14;107.97;;;66.10;;
76439;SDS011;65274;44.982;20.060;2023-12-20T10:39:40;106.88;;;62.92;;
76439;SDS011;65274;44.982;20.060;2023-12-20T10:42:07;137.43;;;75.20;;
76439;SDS011;65274;44.982;20.060;2023-12-20T10:44:34;136.90;;;75.68;;
76439;SDS011;65274;44.982;20.060;2023-12-20T10:47:00;157.95;;;101.07;;
76439;SDS011;65274;44.982;20.060;2023-12-20T10:49:27;116.20;;;69.70;;
76439;SDS011;65274;44.982;20.060;2023-12-20T10:51:55;110.95;;;66.00;;
76439;SDS011;65274;44.982;20.060;2023-12-20T10:54:22;111.13;;;68.85;;
76439;SDS011;65274;44.982;20.060;2023-12-20T10:56:48;105.60;;;64.32;;
76439;SDS011;65274;44.982;20.060;2023-12-20T10:59:16;119.47;;;67.43;;
76439;SDS011;65274;44.982;20.060;2023-12-20T11:01:44;114.93;;;64.95;;
76439;SDS011;65274;44.982;20.060;2023-12-20T11:04:12;120.18;;;68.88;;
76439;SDS011;65274;44.982;20.060;2023-12-20T11:06:49;135.18;;;81.00;;
76439;SDS011;65274;44.982;20.060;2023-12-20T11:09:25;136.50;;;84.45;;
76439;SDS011;65274;44.982;20.060;2023-12-20T11:14:36;111.30;;;66.80;;
76439;SDS011;65274;44.982;20.060;2023-12-20T11:17:05;123.88;;;75.15;;
76439;SDS011;65274;44.982;20.060;2023-12-20T11:19:31;140.40;;;77.43;;
76439;SDS011;65274;44.982;20.060;2023-12-20T11:21:57;131.43;;;76.38;;
76439;SDS011;65274;44.982;20.060;2023-12-20T11:24:25;123.50;;;71.68;;
76439;SDS011;65274;44.982;20.060;2023-12-20T11:30:07;111.57;;;70.10;;
76439;SDS011;65274;44.982;20.060;2023-12-20T11:32:53;116.70;;;70.80;;
76439;SDS011;65274;44.982;20.060;2023-12-20T11:35:31;123.03;;;73.72;;
76439;SDS011;65274;44.982;20.060;2023-12-20T11:38:07;103.93;;;68.15;;
76439;SDS011;65274;44.982;20.060;2023-12-20T11:40:54;104.47;;;62.20;;
76439;SDS011;65274;44.982;20.060;2023-12-20T11:43:34;124.65;;;79.38;;
76439;SDS011;65274;44.982;20.060;2023-12-20T11:46:04;116.22;;;74.53;;
76439;SDS011;65274;44.982;20.060;2023-12-20T11:48:31;109.93;;;64.22;;
76439;SDS011;65274;44.982;20.060;2023-12-20T11:50:57;108.15;;;64.68;;
76439;SDS011;65274;44.982;20.060;2023-12-20T11:53:23;117.45;;;70.28;;
76439;SDS011;65274;44.982;20.060;2023-12-20T12:01:15;114.65;;;68.65;;
76439;SDS011;65274;44.982;20.060;2023-12-20T12:08:54;105.22;;;64.60;;
76439;SDS011;65274;44.982;20.060;2023-12-20T12:11:20;115.05;;;68.95;;
76439;SDS011;65274;44.982;20.060;2023-12-20T12:13:47;106.28;;;66.93;;
76439;SDS011;65274;44.982;20.060;2023-12-20T12:16:16;110.70;;;69.43;;
76439;SDS011;65274;44.982;20.060;2023-12-20T12:18:43;107.70;;;65.55;;
76439;SDS011;65274;44.982;20.060;2023-12-20T12:21:09;110.57;;;65.90;;
76439;SDS011;65274;44.982;20.060;2023-12-20T12:23:35;113.22;;;66.65;;
76439;SDS011;65274;44.982;20.060;2023-12-20T12:26:03;113.90;;;67.00;;
76439;SDS011;65274;44.982;20.060;2023-12-20T12:28:30;129.63;;;72.05;;
76439;SDS011;65274;44.982;20.060;2023-12-20T12:31:00;125.13;;;72.60;;
76439;SDS011;65274;44.982;20.060;2023-12-20T12:33:41;128.02;;;74.47;;
76439;SDS011;65274;44.982;20.060;2023-12-20T12:36:09;134.32;;;79.60;;
76439;SDS011;65274;44.982;20.060;2023-12-20T12:38:36;135.65;;;82.65;;
76439;SDS011;65274;44.982;20.060;2023-12-20T12:41:03;133.82;;;82.90;;
76439;SDS011;65274;44.982;20.060;2023-12-20T12:43:29;145.80;;;85.80;;
76439;SDS011;65274;44.982;20.060;2023-12-20T12:45:55;134.27;;;82.65;;
76439;SDS011;65274;44.982;20.060;2023-12-20T12:48:21;146.10;;;88.35;;
76439;SDS011;65274;44.982;20.060;2023-12-20T12:50:47;150.70;;;90.85;;
76439;SDS011;65274;44.982;20.060;2023-12-20T12:53:14;157.40;;;94.20;;
76439;SDS011;65274;44.982;20.060;2023-12-20T12:55:40;155.55;;;95.30;;
76439;SDS011;65274;44.982;20.060;2023-12-20T12:58:06;146.93;;;85.50;;
76439;SDS011;65274;44.982;20.060;2023-12-20T13:00:33;135.70;;;82.80;;
76439;SDS011;65274;44.982;20.060;2023-12-20T13:02:59;144.55;;;84.28;;
76439;SDS011;65274;44.982;20.060;2023-12-20T13:05:25;165.85;;;94.75;;
76439;SDS011;65274;44.982;20.060;2023-12-20T13:07:51;150.27;;;89.38;;
76439;SDS011;65274;44.982;20.060;2023-12-20T13:10:17;147.77;;;84.43;;
76439;SDS011;65274;44.982;20.060;2023-12-20T13:12:43;158.85;;;90.25;;
76439;SDS011;65274;44.982;20.060;2023-12-20T13:15:09;148.18;;;85.55;;
76439;SDS011;65274;44.982;20.060;2023-12-20T13:17:36;152.68;;;85.93;;
76439;SDS011;65274;44.982;20.060;2023-12-20T13:20:03;157.02;;;88.00;;
76439;SDS011;65274;44.982;20.060;2023-12-20T13:22:29;158.98;;;87.70;;
76439;SDS011;65274;44.982;20.060;2023-12-20T13:24:56;156.38;;;88.07;;
76439;SDS011;65274;44.982;20.060;2023-12-20T13:27:22;467.73;;;234.60;;
76439;SDS011;65274;44.982;20.060;2023-12-20T13:29:49;350.85;;;172.43;;
76439;SDS011;65274;44.982;20.060;2023-12-20T13:32:15;194.82;;;107.80;;
76439;SDS011;65274;44.982;20.060;2023-12-20T13:34:41;200.60;;;108.65;;
76439;SDS011;65274;44.982;20.060;2023-12-20T13:37:07;196.15;;;107.97;;
76439;SDS011;65274;44.982;20.060;2023-12-20T13:39:33;186.73;;;101.07;;
76439;SDS011;65274;44.982;20.060;2023-12-20T13:41:59;168.55;;;93.38;;
76439;SDS011;65274;44.982;20.060;2023-12-20T13:44:25;181.40;;;96.97;;
76439;SDS011;65274;44.982;20.060;2023-12-20T13:46:51;179.85;;;96.03;;
76439;SDS011;65274;44.982;20.060;2023-12-20T13:49:18;171.43;;;93.22;;
76439;SDS011;65274;44.982;20.060;2023-12-20T13:51:44;171.10;;;93.10;;
76439;SDS011;65274;44.982;20.060;2023-12-20T13:54:10;179.77;;;94.90;;
76439;SDS011;65274;44.982;20.060;2023-12-20T13:56:36;183.50;;;101.25;;
76439;SDS011;65274;44.982;20.060;2023-12-20T13:59:02;227.68;;;118.85;;
76439;SDS011;65274;44.982;20.060;2023-12-20T14:01:28;250.27;;;124.90;;
76439;SDS011;65274;44.982;20.060;2023-12-20T14:03:55;277.13;;;134.65;;
76439;SDS011;65274;44.982;20.060;2023-12-20T14:06:21;365.73;;;189.15;;
76439;SDS011;65274;44.982;20.060;2023-12-20T14:08:47;298.42;;;158.45;;
76439;SDS011;65274;44.982;20.060;2023-12-20T14:11:14;246.85;;;133.68;;
76439;SDS011;65274;44.982;20.060;2023-12-20T14:13:40;299.23;;;144.50;;
76439;SDS011;65274;44.982;20.060;2023-12-20T14:16:06;245.73;;;134.20;;
76439;SDS011;65274;44.982;20.060;2023-12-20T14:18:33;286.05;;;151.95;;
76439;SDS011;65274;44.982;20.060;2023-12-20T14:20:59;375.65;;;207.25;;
76439;SDS011;65274;44.982;20.060;2023-12-20T14:23:25;358.05;;;188.65;;
76439;SDS011;65274;44.982;20.060;2023-12-20T14:25:52;247.48;;;133.20;;
76439;SDS011;65274;44.982;20.060;2023-12-20T14:28:18;224.48;;;123.72;;
76439;SDS011;65274;44.982;20.060;2023-12-20T14:30:45;215.57;;;115.00;;
76439;SDS011;65274;44.982;20.060;2023-12-20T14:33:11;218.77;;;114.80;;
76439;SDS011;65274;44.982;20.060;2023-12-20T14:35:37;216.88;;;113.88;;
76439;SDS011;65274;44.982;20.060;2023-12-20T14:38:03;214.82;;;104.00;;
76439;SDS011;65274;44.982;20.060;2023-12-20T14:40:29;220.52;;;112.25;;
76439;SDS011;65274;44.982;20.060;2023-12-20T14:42:55;261.98;;;138.80;;
76439;SDS011;65274;44.982;20.060;2023-12-20T14:45:22;296.55;;;149.38;;
76439;SDS011;65274;44.982;20.060;2023-12-20T14:47:48;248.88;;;123.22;;
76439;SDS011;65274;44.982;20.060;2023-12-20T14:50:14;304.48;;;149.48;;
76439;SDS011;65274;44.982;20.060;2023-12-20T14:52:43;339.30;;;174.52;;
76439;SDS011;65274;44.982;20.060;2023-12-20T14:55:10;500.52;;;290.13;;
76439;SDS011;65274;44.982;20.060;2023-12-20T14:57:36;453.83;;;253.25;;
76439;SDS011;65274;44.982;20.060;2023-12-20T15:00:04;419.48;;;224.48;;
76439;SDS011;65274;44.982;20.060;2023-12-20T15:02:30;424.85;;;220.68;;
76439;SDS011;65274;44.982;20.060;2023-12-20T15:04:56;419.73;;;213.52;;
76439;SDS011;65274;44.982;20.060;2023-12-20T15:07:23;404.70;;;211.95;;
76439;SDS011;65274;44.982;20.060;2023-12-20T15:09:49;386.83;;;194.52;;
76439;SDS011;65274;44.982;20.060;2023-12-20T15:12:16;414.48;;;204.15;;
76439;SDS011;65274;44.982;20.060;2023-12-20T15:14:42;414.95;;;206.13;;
76439;SDS011;65274;44.982;20.060;2023-12-20T15:17:09;416.92;;;205.10;;
76439;SDS011;65274;44.982;20.060;2023-12-20T15:19:36;480.60;;;246.57;;
76439;SDS011;65274;44.982;20.060;2023-12-20T15:22:02;506.48;;;255.15;;
76439;SDS011;65274;44.982;20.060;2023-12-20T15:24:29;423.05;;;214.63;;
76439;SDS011;65274;44.982;20.060;2023-12-20T15:27:03;409.40;;;200.80;;
76439;SDS011;65274;44.982;20.060;2023-12-20T15:29:29;382.15;;;173.50;;
76439;SDS011;65274;44.982;20.060;2023-12-20T15:31:56;319.08;;;139.45;;
76439;SDS011;65274;44.982;20.060;2023-12-20T15:34:23;287.65;;;126.47;;
76439;SDS011;65274;44.982;20.060;2023-12-20T15:36:49;297.83;;;128.52;;
76439;SDS011;65274;44.982;20.060;2023-12-20T15:39:15;292.80;;;122.32;;
76439;SDS011;65274;44.982;20.060;2023-12-20T15:41:41;279.55;;;119.18;;
76439;SDS011;65274;44.982;20.060;2023-12-20T15:44:09;427.48;;;185.20;;
76439;SDS011;65274;44.982;20.060;2023-12-20T15:46:35;293.48;;;125.35;;
76439;SDS011;65274;44.982;20.060;2023-12-20T15:49:02;299.45;;;122.38;;
76439;SDS011;65274;44.982;20.060;2023-12-20T15:51:28;276.63;;;120.85;;
76439;SDS011;65274;44.982;20.060;2023-12-20T15:53:54;280.02;;;118.45;;
76439;SDS011;65274;44.982;20.060;2023-12-20T15:56:22;242.47;;;107.97;;
76439;SDS011;65274;44.982;20.060;2023-12-20T15:58:48;226.60;;;101.32;;
76439;SDS011;65274;44.982;20.060;2023-12-20T16:01:17;251.45;;;104.78;;
76439;SDS011;65274;44.982;20.060;2023-12-20T16:03:52;272.02;;;117.25;;
76439;SDS011;65274;44.982;20.060;2023-12-20T16:06:34;300.50;;;127.72;;
76439;SDS011;65274;44.982;20.060;2023-12-20T16:09:02;301.67;;;126.65;;
76439;SDS011;65274;44.982;20.060;2023-12-20T16:11:30;311.05;;;116.47;;
76439;SDS011;65274;44.982;20.060;2023-12-20T16:13:56;337.00;;;129.05;;
76439;SDS011;65274;44.982;20.060;2023-12-20T16:16:25;360.52;;;143.57;;
76439;SDS011;65274;44.982;20.060;2023-12-20T16:21:25;334.15;;;134.20;;
76439;SDS011;65274;44.982;20.060;2023-12-20T16:23:51;304.60;;;116.07;;
76439;SDS011;65274;44.982;20.060;2023-12-20T16:26:19;326.75;;;124.80;;
76439;SDS011;65274;44.982;20.060;2023-12-20T16:29:08;327.48;;;125.70;;
76439;SDS011;65274;44.982;20.060;2023-12-20T16:31:37;326.88;;;126.25;;
76439;SDS011;65274;44.982;20.060;2023-12-20T16:34:26;332.42;;;127.35;;
76439;SDS011;65274;44.982;20.060;2023-12-20T16:37:05;346.27;;;134.10;;
76439;SDS011;65274;44.982;20.060;2023-12-20T16:39:35;302.20;;;117.53;;
76439;SDS011;65274;44.982;20.060;2023-12-20T16:42:01;302.58;;;118.63;;
76439;SDS011;65274;44.982;20.060;2023-12-20T16:44:28;298.45;;;115.85;;
76439;SDS011;65274;44.982;20.060;2023-12-20T16:46:54;264.38;;;109.80;;
76439;SDS011;65274;44.982;20.060;2023-12-20T16:49:20;287.60;;;110.43;;
76439;SDS011;65274;44.982;20.060;2023-12-20T16:51:49;283.75;;;114.75;;
76439;SDS011;65274;44.982;20.060;2023-12-20T16:54:16;301.83;;;114.75;;
76439;SDS011;65274;44.982;20.060;2023-12-20T16:56:48;300.13;;;116.22;;
76439;SDS011;65274;44.982;20.060;2023-12-20T16:59:21;300.27;;;110.55;;
76439;SDS011;65274;44.982;20.060;2023-12-20T17:01:48;286.75;;;115.78;;
76439;SDS011;65274;44.982;20.060;2023-12-20T17:04:17;295.13;;;113.78;;
76439;SDS011;65274;44.982;20.060;2023-12-20T17:06:52;331.90;;;121.35;;
76439;SDS011;65274;44.982;20.060;2023-12-20T17:09:28;283.20;;;110.70;;
76439;SDS011;65274;44.982;20.060;2023-12-20T17:14:41;272.63;;;105.00;;
76439;SDS011;65274;44.982;20.060;2023-12-20T20:14:24;49.60;;;24.17;;
76439;SDS011;65274;44.982;20.060;2023-12-20T20:16:53;60.08;;;27.58;;
76439;SDS011;65274;44.982;20.060;2023-12-20T20:19:21;89.95;;;40.15;;
76439;SDS011;65274;44.982;20.060;2023-12-20T20:21:58;145.15;;;52.92;;
76439;SDS011;65274;44.982;20.060;2023-12-20T20:24:36;38.85;;;21.33;;
76439;SDS011;65274;44.982;20.060;2023-12-20T20:27:03;80.05;;;33.00;;
76439;SDS011;65274;44.982;20.060;2023-12-20T20:29:29;159.95;;;52.72;;
76439;SDS011;65274;44.982;20.060;2023-12-20T20:31:55;32.22;;;17.50;;
76439;SDS011;65274;44.982;20.060;2023-12-20T20:34:22;53.78;;;22.88;;
76439;SDS011;65274;44.982;20.060;2023-12-20T20:36:52;54.05;;;23.55;;
76439;SDS011;65274;44.982;20.060;2023-12-20T20:39:18;39.95;;;19.85;;
76439;SDS011;65274;44.982;20.060;2023-12-20T20:41:44;52.30;;;21.95;;
76439;SDS011;65274;44.982;20.060;2023-12-20T20:44:11;22.02;;;12.48;;
76439;SDS011;65274;44.982;20.060;2023-12-20T20:46:37;23.73;;;12.38;;
76439;SDS011;65274;44.982;20.060;2023-12-20T20:49:03;20.33;;;10.25;;
76439;SDS011;65274;44.982;20.060;2023-12-20T20:51:29;16.83;;;9.50;;
76439;SDS011;65274;44.982;20.060;2023-12-20T20:53:57;20.75;;;10.75;;
76439;SDS011;65274;44.982;20.060;2023-12-20T20:56:24;18.23;;;10.38;;
76439;SDS011;65274;44.982;20.060;2023-12-20T20:58:50;17.70;;;9.98;;
76439;SDS011;65274;44.982;20.060;2023-12-20T21:01:20;23.30;;;14.98;;
76439;SDS011;65274;44.982;20.060;2023-12-20T21:03:47;28.92;;;15.90;;
76439;SDS011;65274;44.982;20.060;2023-12-20T21:06:14;23.45;;;13.43;;
76439;SDS011;65274;44.982;20.060;2023-12-20T21:08:42;32.90;;;18.08;;
76439;SDS011;65274;44.982;20.060;2023-12-20T21:11:08;30.15;;;17.27;;
76439;SDS011;65274;44.982;20.060;2023-12-20T21:13:35;34.63;;;19.98;;
76439;SDS011;65274;44.982;20.060;2023-12-20T21:16:03;37.00;;;20.85;;
76439;SDS011;65274;44.982;20.060;2023-12-20T21:18:29;44.78;;;24.10;;
76439;SDS011;65274;44.982;20.060;2023-12-20T21:20:55;83.65;;;40.88;;
76439;SDS011;65274;44.982;20.060;2023-12-20T21:23:22;43.78;;;21.00;;
76439;SDS011;65274;44.982;20.060;2023-12-20T21:25:48;58.15;;;27.58;;
76439;SDS011;65274;44.982;20.060;2023-12-20T21:28:14;62.25;;;30.98;;
76439;SDS011;65274;44.982;20.060;2023-12-20T21:30:46;62.20;;;33.13;;
76439;SDS011;65274;44.982;20.060;2023-12-20T21:33:12;74.65;;;34.63;;
76439;SDS011;65274;44.982;20.060;2023-12-20T21:35:39;65.43;;;33.58;;
76439;SDS011;65274;44.982;20.060;2023-12-20T21:38:05;71.55;;;37.35;;
76439;SDS011;65274;44.982;20.060;2023-12-20T21:40:31;70.35;;;33.45;;
76439;SDS011;65274;44.982;20.060;2023-12-20T21:42:57;68.25;;;35.70;;
76439;SDS011;65274;44.982;20.060;2023-12-20T21:45:24;65.25;;;32.22;;
76439;SDS011;65274;44.982;20.060;2023-12-20T21:47:50;68.63;;;35.42;;
76439;SDS011;65274;44.982;20.060;2023-12-20T21:50:17;75.78;;;34.03;;
76439;SDS011;65274;44.982;20.060;2023-12-20T21:52:43;67.63;;;35.22;;
76439;SDS011;65274;44.982;20.060;2023-12-20T21:55:10;70.05;;;33.88;;
76439;SDS011;65274;44.982;20.060;2023-12-20T21:57:36;66.80;;;35.28;;
76439;SDS011;65274;44.982;20.060;2023-12-20T22:00:03;76.90;;;38.90;;
76439;SDS011;65274;44.982;20.060;2023-12-20T22:02:29;78.25;;;34.85;;
76439;SDS011;65274;44.982;20.060;2023-12-20T22:04:55;71.63;;;36.95;;
76439;SDS011;65274;44.982;20.060;2023-12-20T22:07:21;77.68;;;38.38;;
76439;SDS011;65274;44.982;20.060;2023-12-20T22:09:48;81.47;;;38.75;;
76439;SDS011;65274;44.982;20.060;2023-12-20T22:12:15;84.80;;;40.45;;
76439;SDS011;65274;44.982;20.060;2023-12-20T22:14:41;87.13;;;42.67;;
76439;SDS011;65274;44.982;20.060;2023-12-20T22:17:07;83.03;;;41.83;;
76439;SDS011;65274;44.982;20.060;2023-12-20T22:19:33;89.07;;;40.78;;
76439;SDS011;65274;44.982;20.060;2023-12-20T22:21:59;82.63;;;41.08;;
76439;SDS011;65274;44.982;20.060;2023-12-20T22:24:25;82.40;;;40.40;;
76439;SDS011;65274;44.982;20.060;2023-12-20T22:26:52;91.03;;;44.78;;
76439;SDS011;65274;44.982;20.060;2023-12-20T22:29:20;89.28;;;40.97;;
76439;SDS011;65274;44.982;20.060;2023-12-20T22:31:50;95.00;;;43.30;;
76439;SDS011;65274;44.982;20.060;2023-12-20T22:34:16;97.95;;;44.88;;
76439;SDS011;65274;44.982;20.060;2023-12-20T22:36:43;79.47;;;40.63;;
76439;SDS011;65274;44.982;20.060;2023-12-20T22:39:13;88.50;;;43.40;;
76439;SDS011;65274;44.982;20.060;2023-12-20T22:41:39;94.97;;;46.25;;
76439;SDS011;65274;44.982;20.060;2023-12-20T22:44:08;92.13;;;46.00;;
76439;SDS011;65274;44.982;20.060;2023-12-20T22:46:34;93.70;;;45.07;;
76439;SDS011;65274;44.982;20.060;2023-12-20T22:49:05;98.97;;;44.35;;
76439;SDS011;65274;44.982;20.060;2023-12-20T22:51:31;93.68;;;44.92;;
76439;SDS011;65274;44.982;20.060;2023-12-20T22:54:00;92.47;;;44.47;;
76439;SDS011;65274;44.982;20.060;2023-12-20T22:56:26;87.53;;;43.05;;
76439;SDS011;65274;44.982;20.060;2023-12-20T23:04:59;88.63;;;44.35;;
76439;SDS011;65274;44.982;20.060;2023-12-20T23:08:05;88.00;;;43.10;;
76439;SDS011;65274;44.982;20.060;2023-12-20T23:11:12;86.55;;;43.97;;
76439;SDS011;65274;44.982;20.060;2023-12-20T23:13:46;84.82;;;42.55;;
76439;SDS011;65274;44.982;20.060;2023-12-20T23:17:02;85.30;;;39.05;;
76439;SDS011;65274;44.982;20.060;2023-12-20T23:19:30;77.82;;;39.25;;
76439;SDS011;65274;44.982;20.060;2023-12-20T23:22:14;92.45;;;41.97;;
76439;SDS011;65274;44.982;20.060;2023-12-20T23:24:40;86.88;;;40.30;;
76439;SDS011;65274;44.982;20.060;2023-12-20T23:27:24;80.70;;;42.35;;
76439;SDS011;65274;44.982;20.060;2023-12-20T23:30:23;88.38;;;42.72;;
76439;SDS011;65274;44.982;20.060;2023-12-20T23:33:16;80.30;;;38.42;;
76439;SDS011;65274;44.982;20.060;2023-12-20T23:36:21;85.50;;;38.25;;
76439;SDS011;65274;44.982;20.060;2023-12-20T23:38:47;80.75;;;39.55;;
76439;SDS011;65274;44.982;20.060;2023-12-20T23:41:30;81.90;;;40.33;;
76439;SDS011;65274;44.982;20.060;2023-12-20T23:44:04;85.30;;;40.53;;
76439;SDS011;65274;44.982;20.060;2023-12-20T23:46:50;75.45;;;40.83;;
76439;SDS011;65274;44.982;20.060;2023-12-20T23:49:18;80.38;;;39.25;;
76439;SDS011;65274;44.982;20.060;2023-12-20T23:54:52;72.22;;;36.13;;
76439;SDS011;65274;44.982;20.060;2023-12-20T23:57:25;79.82;;;35.92;;
